Mayflower, Texas
Current Conditions -  °F | °C
As of 6:35 PM on Friday 21 Nov 2014 (Local Time) from KJAS Reporting Station
Moderate Rain Moderate Rain  
Wind Chill: 61°   Ceiling: 6500
Heat Index: 61°   Visibility: 10mi
Dew Point: 54°   Wind: 3mph
Humidity: 78%   Direction: 120°ESE
Pressure: 30.21"   Gusts: NA
Location:  31.0751°N, 93.8073°W
Report Text: KJAS 220035Z AUTO 12003KT 10SM RA SCT050 OVC065 16/12 A3021 RMK AO2 P0001 T01620124
Loading
Personal Weather Stations






























Interactive Weather Map New forecast layout! Learn more

10-Day Weather Forecast

Advertisements
Track Severe Weather on mobile